sensor_id;sensor_type;location;lat;lon;timestamp;P1;P2;P0
76238;PMS7003;65043;48.392;-4.472;2023-11-21T00:01:16;0.00;0.00;0.00
76238;PMS7003;65043;48.392;-4.472;2023-11-21T00:03:42;1.00;1.00;0.00
76238;PMS7003;65043;48.392;-4.472;2023-11-21T00:06:08;1.25;0.75;0.00
76238;PMS7003;65043;48.392;-4.472;2023-11-21T00:08:34;0.00;0.00;0.00
76238;PMS7003;65043;48.392;-4.472;2023-11-21T00:11:00;3.00;0.00;0.00
76238;PMS7003;65043;48.392;-4.472;2023-11-21T00:13:26;1.50;0.00;0.00
76238;PMS7003;65043;48.392;-4.472;2023-11-21T00:15:52;0.00;0.00;0.00
76238;PMS7003;65043;48.392;-4.472;2023-11-21T00:18:17;0.00;0.00;0.00
76238;PMS7003;65043;48.392;-4.472;2023-11-21T00:20:43;0.00;0.00;0.00
76238;PMS7003;65043;48.392;-4.472;2023-11-21T00:23:08;0.00;0.00;0.00
76238;PMS7003;65043;48.392;-4.472;2023-11-21T00:25:34;2.25;0.00;0.00
76238;PMS7003;65043;48.392;-4.472;2023-11-21T00:28:00;1.00;1.00;0.00
76238;PMS7003;65043;48.392;-4.472;2023-11-21T00:30:26;1.00;0.00;0.00
76238;PMS7003;65043;48.392;-4.472;2023-11-21T00:32:53;0.00;0.00;0.00
76238;PMS7003;65043;48.392;-4.472;2023-11-21T00:35:19;2.00;0.75;0.00
76238;PMS7003;65043;48.392;-4.472;2023-11-21T00:37:45;1.50;0.50;0.00
76238;PMS7003;65043;48.392;-4.472;2023-11-21T00:40:10;1.75;0.00;0.00
76238;PMS7003;65043;48.392;-4.472;2023-11-21T00:42:36;0.25;0.25;0.00
76238;PMS7003;65043;48.392;-4.472;2023-11-21T00:45:02;2.75;1.00;0.00
76238;PMS7003;65043;48.392;-4.472;2023-11-21T00:47:28;1.50;0.00;0.00
76238;PMS7003;65043;48.392;-4.472;2023-11-21T00:49:54;1.00;1.00;0.00
76238;PMS7003;65043;48.392;-4.472;2023-11-21T00:52:19;1.00;0.00;0.00
76238;PMS7003;65043;48.392;-4.472;2023-11-21T00:54:45;1.00;0.75;0.00
76238;PMS7003;65043;48.392;-4.472;2023-11-21T00:57:11;0.00;0.00;0.00
76238;PMS7003;65043;48.392;-4.472;2023-11-21T00:59:37;0.00;0.00;0.00
76238;PMS7003;65043;48.392;-4.472;2023-11-21T01:02:02;0.25;0.25;0.00
76238;PMS7003;65043;48.392;-4.472;2023-11-21T01:04:30;0.50;0.00;0.00
76238;PMS7003;65043;48.392;-4.472;2023-11-21T01:06:57;4.00;1.00;0.00
76238;PMS7003;65043;48.392;-4.472;2023-11-21T01:09:22;2.75;1.25;0.00
76238;PMS7003;65043;48.392;-4.472;2023-11-21T01:11:49;1.25;0.75;0.00
76238;PMS7003;65043;48.392;-4.472;2023-11-21T01:14:14;2.25;0.50;0.00
76238;PMS7003;65043;48.392;-4.472;2023-11-21T01:16:40;4.00;1.00;0.00
76238;PMS7003;65043;48.392;-4.472;2023-11-21T01:19:05;2.00;1.25;1.00
76238;PMS7003;65043;48.392;-4.472;2023-11-21T01:21:31;0.25;0.25;0.00
76238;PMS7003;65043;48.392;-4.472;2023-11-21T01:23:57;1.00;0.50;0.00
76238;PMS7003;65043;48.392;-4.472;2023-11-21T01:26:22;0.75;0.75;0.00
76238;PMS7003;65043;48.392;-4.472;2023-11-21T01:28:48;1.00;1.00;0.00
76238;PMS7003;65043;48.392;-4.472;2023-11-21T01:31:14;1.50;0.00;0.00
76238;PMS7003;65043;48.392;-4.472;2023-11-21T01:33:40;2.00;0.00;0.00
76238;PMS7003;65043;48.392;-4.472;2023-11-21T01:36:06;1.50;0.00;0.00
76238;PMS7003;65043;48.392;-4.472;2023-11-21T01:38:32;2.75;0.00;0.00
76238;PMS7003;65043;48.392;-4.472;2023-11-21T01:40:57;2.50;1.00;0.00
76238;PMS7003;65043;48.392;-4.472;2023-11-21T01:43:26;2.00;1.00;0.25
76238;PMS7003;65043;48.392;-4.472;2023-11-21T01:45:51;0.75;0.75;0.75
76238;PMS7003;65043;48.392;-4.472;2023-11-21T01:48:19;0.00;0.00;0.00
76238;PMS7003;65043;48.392;-4.472;2023-11-21T01:50:44;2.25;2.00;0.00
76238;PMS7003;65043;48.392;-4.472;2023-11-21T01:53:11;2.00;1.25;1.00
76238;PMS7003;65043;48.392;-4.472;2023-11-21T01:55:38;2.00;2.00;0.75
76238;PMS7003;65043;48.392;-4.472;2023-11-21T01:58:05;3.00;1.00;0.50
76238;PMS7003;65043;48.392;-4.472;2023-11-21T02:00:32;4.50;1.00;0.00
76238;PMS7003;65043;48.392;-4.472;2023-11-21T02:02:58;2.25;1.00;0.00
76238;PMS7003;65043;48.392;-4.472;2023-11-21T02:05:24;2.50;1.25;0.00
76238;PMS7003;65043;48.392;-4.472;2023-11-21T02:07:51;6.75;2.00;0.00
76238;PMS7003;65043;48.392;-4.472;2023-11-21T02:10:17;2.25;1.75;0.00
76238;PMS7003;65043;48.392;-4.472;2023-11-21T02:12:47;1.25;0.25;0.00
76238;PMS7003;65043;48.392;-4.472;2023-11-21T02:15:15;3.00;1.50;0.00
76238;PMS7003;65043;48.392;-4.472;2023-11-21T02:17:52;2.00;1.00;0.00
76238;PMS7003;65043;48.392;-4.472;2023-11-21T02:20:19;0.50;0.50;0.00
76238;PMS7003;65043;48.392;-4.472;2023-11-21T02:22:52;2.00;2.00;0.00
76238;PMS7003;65043;48.392;-4.472;2023-11-21T02:25:25;4.25;3.75;1.00
76238;PMS7003;65043;48.392;-4.472;2023-11-21T02:27:53;3.00;1.00;0.00
76238;PMS7003;65043;48.392;-4.472;2023-11-21T02:30:20;4.00;2.00;0.00
76238;PMS7003;65043;48.392;-4.472;2023-11-21T02:32:46;3.25;1.00;0.00
76238;PMS7003;65043;48.392;-4.472;2023-11-21T02:35:18;3.50;1.25;0.00
76238;PMS7003;65043;48.392;-4.472;2023-11-21T02:37:46;3.50;1.75;0.00
76238;PMS7003;65043;48.392;-4.472;2023-11-21T02:40:12;0.25;0.25;0.00
76238;PMS7003;65043;48.392;-4.472;2023-11-21T02:42:38;3.00;1.25;0.00
76238;PMS7003;65043;48.392;-4.472;2023-11-21T02:45:06;0.00;0.00;0.00
76238;PMS7003;65043;48.392;-4.472;2023-11-21T02:47:32;0.00;0.00;0.00
76238;PMS7003;65043;48.392;-4.472;2023-11-21T02:49:58;4.50;0.50;0.00
76238;PMS7003;65043;48.392;-4.472;2023-11-21T02:52:24;2.00;0.25;0.00
76238;PMS7003;65043;48.392;-4.472;2023-11-21T02:54:50;3.00;2.00;0.00
76238;PMS7003;65043;48.392;-4.472;2023-11-21T02:57:16;2.00;0.00;0.00
76238;PMS7003;65043;48.392;-4.472;2023-11-21T02:59:41;1.00;0.75;0.00
76238;PMS7003;65043;48.392;-4.472;2023-11-21T03:02:07;1.75;1.50;0.00
76238;PMS7003;65043;48.392;-4.472;2023-11-21T03:04:35;1.50;1.50;0.00
76238;PMS7003;65043;48.392;-4.472;2023-11-21T03:07:01;2.75;1.00;1.00
76238;PMS7003;65043;48.392;-4.472;2023-11-21T03:09:26;7.00;1.75;1.00
76238;PMS7003;65043;48.392;-4.472;2023-11-21T03:11:55;1.50;0.00;0.00
76238;PMS7003;65043;48.392;-4.472;2023-11-21T03:14:21;5.00;2.00;1.00
76238;PMS7003;65043;48.392;-4.472;2023-11-21T03:16:47;1.00;1.00;0.00
76238;PMS7003;65043;48.392;-4.472;2023-11-21T03:19:13;4.75;1.25;0.25
76238;PMS7003;65043;48.392;-4.472;2023-11-21T03:21:40;1.25;1.25;0.00
76238;PMS7003;65043;48.392;-4.472;2023-11-21T03:24:05;3.25;2.00;0.00
76238;PMS7003;65043;48.392;-4.472;2023-11-21T03:26:32;2.50;0.75;0.00
76238;PMS7003;65043;48.392;-4.472;2023-11-21T03:28:57;4.00;2.00;1.00
76238;PMS7003;65043;48.392;-4.472;2023-11-21T03:31:23;3.00;1.25;1.00
76238;PMS7003;65043;48.392;-4.472;2023-11-21T03:33:48;5.50;3.00;0.00
76238;PMS7003;65043;48.392;-4.472;2023-11-21T03:36:14;2.75;2.00;0.00
76238;PMS7003;65043;48.392;-4.472;2023-11-21T03:38:43;1.75;1.00;0.00
76238;PMS7003;65043;48.392;-4.472;2023-11-21T03:41:08;2.00;1.00;0.00
76238;PMS7003;65043;48.392;-4.472;2023-11-21T03:43:37;3.00;1.50;1.00
76238;PMS7003;65043;48.392;-4.472;2023-11-21T03:46:02;5.00;1.25;0.50
76238;PMS7003;65043;48.392;-4.472;2023-11-21T03:48:29;0.75;0.75;0.00
76238;PMS7003;65043;48.392;-4.472;2023-11-21T03:50:54;0.00;0.00;0.00
76238;PMS7003;65043;48.392;-4.472;2023-11-21T03:53:20;4.00;1.75;1.00
76238;PMS7003;65043;48.392;-4.472;2023-11-21T03:55:45;3.00;1.75;0.50
76238;PMS7003;65043;48.392;-4.472;2023-11-21T03:58:11;2.75;2.25;1.00
76238;PMS7003;65043;48.392;-4.472;2023-11-21T04:00:37;4.00;1.00;0.00
76238;PMS7003;65043;48.392;-4.472;2023-11-21T04:03:03;4.00;1.00;1.00
76238;PMS7003;65043;48.392;-4.472;2023-11-21T04:05:28;4.50;2.00;0.50
76238;PMS7003;65043;48.392;-4.472;2023-11-21T04:07:54;3.00;1.50;0.00
76238;PMS7003;65043;48.392;-4.472;2023-11-21T04:10:20;3.00;1.75;0.00
76238;PMS7003;65043;48.392;-4.472;2023-11-21T04:12:45;4.00;3.00;1.00
76238;PMS7003;65043;48.392;-4.472;2023-11-21T04:15:11;3.00;1.75;1.00
76238;PMS7003;65043;48.392;-4.472;2023-11-21T04:17:38;4.00;2.00;0.00
76238;PMS7003;65043;48.392;-4.472;2023-11-21T04:20:04;3.00;1.00;1.00
76238;PMS7003;65043;48.392;-4.472;2023-11-21T04:22:34;3.25;2.00;1.00
76238;PMS7003;65043;48.392;-4.472;2023-11-21T04:25:01;1.00;1.00;1.00
76238;PMS7003;65043;48.392;-4.472;2023-11-21T04:27:27;3.50;3.00;1.00
76238;PMS7003;65043;48.392;-4.472;2023-11-21T04:29:52;2.00;2.00;1.00
76238;PMS7003;65043;48.392;-4.472;2023-11-21T04:32:18;3.75;3.00;1.50
76238;PMS7003;65043;48.392;-4.472;2023-11-21T04:34:44;4.75;2.00;1.00
76238;PMS7003;65043;48.392;-4.472;2023-11-21T04:37:09;2.00;2.00;1.00
76238;PMS7003;65043;48.392;-4.472;2023-11-21T04:39:35;1.75;1.75;1.00
76238;PMS7003;65043;48.392;-4.472;2023-11-21T04:42:01;1.25;1.25;1.00
76238;PMS7003;65043;48.392;-4.472;2023-11-21T04:44:27;3.00;1.50;0.00
76238;PMS7003;65043;48.392;-4.472;2023-11-21T04:46:52;2.00;2.00;0.75
76238;PMS7003;65043;48.392;-4.472;2023-11-21T04:49:18;2.75;1.00;0.00
76238;PMS7003;65043;48.392;-4.472;2023-11-21T04:51:43;3.75;2.00;0.00
76238;PMS7003;65043;48.392;-4.472;2023-11-21T04:54:09;4.25;1.50;1.00
76238;PMS7003;65043;48.392;-4.472;2023-11-21T04:56:35;4.50;1.75;1.00
76238;PMS7003;65043;48.392;-4.472;2023-11-21T04:59:01;4.50;1.50;1.00
76238;PMS7003;65043;48.392;-4.472;2023-11-21T05:01:26;3.25;1.00;0.50
76238;PMS7003;65043;48.392;-4.472;2023-11-21T05:03:52;1.50;1.00;0.00
76238;PMS7003;65043;48.392;-4.472;2023-11-21T05:06:17;1.75;1.75;1.00
76238;PMS7003;65043;48.392;-4.472;2023-11-21T05:08:43;4.50;1.50;0.00
76238;PMS7003;65043;48.392;-4.472;2023-11-21T05:11:08;2.75;1.00;0.75
76238;PMS7003;65043;48.392;-4.472;2023-11-21T05:13:35;4.75;2.00;1.00
76238;PMS7003;65043;48.392;-4.472;2023-11-21T05:16:01;3.50;1.00;1.00
76238;PMS7003;65043;48.392;-4.472;2023-11-21T05:18:29;6.75;3.75;2.00
76238;PMS7003;65043;48.392;-4.472;2023-11-21T05:20:55;3.00;3.00;1.00
76238;PMS7003;65043;48.392;-4.472;2023-11-21T05:23:21;2.25;0.75;0.50
76238;PMS7003;65043;48.392;-4.472;2023-11-21T05:25:46;6.75;3.00;1.00
76238;PMS7003;65043;48.392;-4.472;2023-11-21T05:28:12;3.50;1.25;1.00
76238;PMS7003;65043;48.392;-4.472;2023-11-21T05:30:37;2.50;1.00;1.00
76238;PMS7003;65043;48.392;-4.472;2023-11-21T05:33:06;7.00;2.00;1.00
76238;PMS7003;65043;48.392;-4.472;2023-11-21T05:35:31;2.00;1.50;1.00
76238;PMS7003;65043;48.392;-4.472;2023-11-21T05:37:57;2.50;1.50;1.00
76238;PMS7003;65043;48.392;-4.472;2023-11-21T05:40:23;5.00;1.00;1.00
76238;PMS7003;65043;48.392;-4.472;2023-11-21T05:42:48;3.00;3.00;2.00
76238;PMS7003;65043;48.392;-4.472;2023-11-21T05:45:14;4.50;3.25;1.00
76238;PMS7003;65043;48.392;-4.472;2023-11-21T05:47:41;2.25;2.25;1.00
76238;PMS7003;65043;48.392;-4.472;2023-11-21T05:50:08;3.00;2.75;1.00
76238;PMS7003;65043;48.392;-4.472;2023-11-21T05:52:39;1.00;1.00;1.00
76238;PMS7003;65043;48.392;-4.472;2023-11-21T05:55:06;5.25;2.25;1.00
76238;PMS7003;65043;48.392;-4.472;2023-11-21T05:57:35;4.25;3.00;1.75
76238;PMS7003;65043;48.392;-4.472;2023-11-21T06:00:04;2.00;2.00;1.00
76238;PMS7003;65043;48.392;-4.472;2023-11-21T06:02:46;2.00;2.00;1.00
76238;PMS7003;65043;48.392;-4.472;2023-11-21T06:05:12;3.00;2.00;0.00
76238;PMS7003;65043;48.392;-4.472;2023-11-21T06:07:38;2.75;2.25;1.00
76238;PMS7003;65043;48.392;-4.472;2023-11-21T06:10:07;1.75;1.75;0.75
76238;PMS7003;65043;48.392;-4.472;2023-11-21T06:12:37;4.00;1.00;1.00
76238;PMS7003;65043;48.392;-4.472;2023-11-21T06:15:05;5.00;3.00;1.00
76238;PMS7003;65043;48.392;-4.472;2023-11-21T06:17:33;2.50;1.50;1.00
76238;PMS7003;65043;48.392;-4.472;2023-11-21T06:20:02;4.75;1.00;0.75
76238;PMS7003;65043;48.392;-4.472;2023-11-21T06:22:34;2.25;1.00;1.00
76238;PMS7003;65043;48.392;-4.472;2023-11-21T06:25:02;2.00;2.00;1.00
76238;PMS7003;65043;48.392;-4.472;2023-11-21T06:27:33;3.50;2.75;1.50
76238;PMS7003;65043;48.392;-4.472;2023-11-21T06:30:02;2.75;2.75;1.00
76238;PMS7003;65043;48.392;-4.472;2023-11-21T06:32:29;6.25;4.75;1.00
76238;PMS7003;65043;48.392;-4.472;2023-11-21T06:34:55;3.00;2.50;1.00
76238;PMS7003;65043;48.392;-4.472;2023-11-21T06:37:21;5.00;3.00;1.25
76238;PMS7003;65043;48.392;-4.472;2023-11-21T06:39:48;6.00;2.75;1.00
76238;PMS7003;65043;48.392;-4.472;2023-11-21T06:42:14;5.00;3.00;2.00
76238;PMS7003;65043;48.392;-4.472;2023-11-21T06:44:40;7.50;2.50;1.00
76238;PMS7003;65043;48.392;-4.472;2023-11-21T06:47:06;4.25;2.75;1.00
76238;PMS7003;65043;48.392;-4.472;2023-11-21T06:49:32;6.00;4.50;1.25
76238;PMS7003;65043;48.392;-4.472;2023-11-21T06:51:58;5.50;3.00;2.00
76238;PMS7003;65043;48.392;-4.472;2023-11-21T06:54:24;3.50;2.25;1.00
76238;PMS7003;65043;48.392;-4.472;2023-11-21T06:56:49;4.50;4.50;2.00
76238;PMS7003;65043;48.392;-4.472;2023-11-21T06:59:15;6.00;3.75;2.00
76238;PMS7003;65043;48.392;-4.472;2023-11-21T07:01:41;7.50;5.75;3.00
76238;PMS7003;65043;48.392;-4.472;2023-11-21T07:04:07;7.00;3.75;1.00
76238;PMS7003;65043;48.392;-4.472;2023-11-21T07:06:33;5.00;4.00;2.00
76238;PMS7003;65043;48.392;-4.472;2023-11-21T07:09:00;6.75;4.75;1.75
76238;PMS7003;65043;48.392;-4.472;2023-11-21T07:11:26;7.00;3.25;1.00
76238;PMS7003;65043;48.392;-4.472;2023-11-21T07:13:52;6.50;5.00;2.00
76238;PMS7003;65043;48.392;-4.472;2023-11-21T07:16:18;8.00;6.00;3.00
76238;PMS7003;65043;48.392;-4.472;2023-11-21T07:18:44;8.50;2.50;1.00
76238;PMS7003;65043;48.392;-4.472;2023-11-21T07:21:10;8.50;4.00;1.75
76238;PMS7003;65043;48.392;-4.472;2023-11-21T07:23:37;6.50;4.75;2.00
76238;PMS7003;65043;48.392;-4.472;2023-11-21T07:26:03;5.75;3.75;2.25
76238;PMS7003;65043;48.392;-4.472;2023-11-21T07:28:29;4.75;3.50;1.75
76238;PMS7003;65043;48.392;-4.472;2023-11-21T07:30:55;6.00;4.50;2.00
76238;PMS7003;65043;48.392;-4.472;2023-11-21T07:33:21;4.00;4.00;2.00
76238;PMS7003;65043;48.392;-4.472;2023-11-21T07:35:46;8.00;5.50;2.00
76238;PMS7003;65043;48.392;-4.472;2023-11-21T07:38:12;3.75;3.00;2.00
76238;PMS7003;65043;48.392;-4.472;2023-11-21T07:40:38;8.00;4.00;1.00
76238;PMS7003;65043;48.392;-4.472;2023-11-21T07:43:03;10.25;2.50;1.00
76238;PMS7003;65043;48.392;-4.472;2023-11-21T07:45:30;11.25;6.75;2.25
76238;PMS7003;65043;48.392;-4.472;2023-11-21T07:47:56;6.00;3.00;1.00
76238;PMS7003;65043;48.392;-4.472;2023-11-21T07:50:22;7.25;3.50;1.00
76238;PMS7003;65043;48.392;-4.472;2023-11-21T07:52:48;3.75;2.75;1.75
76238;PMS7003;65043;48.392;-4.472;2023-11-21T07:55:14;4.75;4.00;2.00
76238;PMS7003;65043;48.392;-4.472;2023-11-21T07:57:40;4.50;2.75;1.50
76238;PMS7003;65043;48.392;-4.472;2023-11-21T08:00:06;4.25;3.75;1.25
76238;PMS7003;65043;48.392;-4.472;2023-11-21T08:02:34;5.00;4.00;2.00
76238;PMS7003;65043;48.392;-4.472;2023-11-21T08:04:59;10.00;4.00;2.00
76238;PMS7003;65043;48.392;-4.472;2023-11-21T08:07:26;5.00;3.00;1.00
76238;PMS7003;65043;48.392;-4.472;2023-11-21T08:09:51;11.50;6.25;2.75
76238;PMS7003;65043;48.392;-4.472;2023-11-21T08:12:17;6.50;4.50;1.75
76238;PMS7003;65043;48.392;-4.472;2023-11-21T08:14:45;6.50;4.00;2.00
76238;PMS7003;65043;48.392;-4.472;2023-11-21T08:17:10;7.00;3.25;1.00
76238;PMS7003;65043;48.392;-4.472;2023-11-21T08:19:36;6.25;5.00;2.00
76238;PMS7003;65043;48.392;-4.472;2023-11-21T08:22:02;7.25;2.00;1.00
76238;PMS7003;65043;48.392;-4.472;2023-11-21T08:24:28;3.25;2.00;1.00
76238;PMS7003;65043;48.392;-4.472;2023-11-21T08:26:54;5.75;3.00;1.00
76238;PMS7003;65043;48.392;-4.472;2023-11-21T08:29:19;3.75;3.50;2.00
76238;PMS7003;65043;48.392;-4.472;2023-11-21T08:31:45;4.50;3.00;1.50
76238;PMS7003;65043;48.392;-4.472;2023-11-21T08:34:12;9.25;4.00;2.25
76238;PMS7003;65043;48.392;-4.472;2023-11-21T08:36:44;5.50;3.00;1.00
76238;PMS7003;65043;48.392;-4.472;2023-11-21T08:39:10;7.25;3.00;1.00
76238;PMS7003;65043;48.392;-4.472;2023-11-21T08:41:36;8.25;4.00;2.00
76238;PMS7003;65043;48.392;-4.472;2023-11-21T08:44:01;6.50;3.00;1.00
76238;PMS7003;65043;48.392;-4.472;2023-11-21T08:46:31;5.00;3.25;1.00
76238;PMS7003;65043;48.392;-4.472;2023-11-21T08:48:57;3.75;3.00;1.75
76238;PMS7003;65043;48.392;-4.472;2023-11-21T08:51:22;3.00;3.00;1.00
76238;PMS7003;65043;48.392;-4.472;2023-11-21T08:53:48;5.75;3.00;1.25
76238;PMS7003;65043;48.392;-4.472;2023-11-21T08:56:13;2.75;1.50;1.00
76238;PMS7003;65043;48.392;-4.472;2023-11-21T08:58:39;5.25;2.25;1.00
76238;PMS7003;65043;48.392;-4.472;2023-11-21T09:01:05;4.00;2.75;1.00
76238;PMS7003;65043;48.392;-4.472;2023-11-21T09:03:32;1.00;1.00;1.00
76238;PMS7003;65043;48.392;-4.472;2023-11-21T09:05:59;3.00;2.00;1.00
76238;PMS7003;65043;48.392;-4.472;2023-11-21T09:08:25;5.50;3.75;2.00
76238;PMS7003;65043;48.392;-4.472;2023-11-21T09:10:53;2.50;2.50;1.25
76238;PMS7003;65043;48.392;-4.472;2023-11-21T09:13:18;4.00;4.00;2.00
76238;PMS7003;65043;48.392;-4.472;2023-11-21T09:15:44;3.75;2.00;1.25
76238;PMS7003;65043;48.392;-4.472;2023-11-21T09:18:14;2.00;1.75;1.00
76238;PMS7003;65043;48.392;-4.472;2023-11-21T09:20:40;6.75;4.00;1.75
76238;PMS7003;65043;48.392;-4.472;2023-11-21T09:23:06;4.00;3.00;1.00
76238;PMS7003;65043;48.392;-4.472;2023-11-21T09:25:32;7.50;3.50;1.50
76238;PMS7003;65043;48.392;-4.472;2023-11-21T09:27:58;4.25;2.50;1.00
76238;PMS7003;65043;48.392;-4.472;2023-11-21T09:30:23;8.75;4.25;1.00
76238;PMS7003;65043;48.392;-4.472;2023-11-21T09:32:50;5.25;3.50;1.00
76238;PMS7003;65043;48.392;-4.472;2023-11-21T09:35:15;6.00;3.50;1.25
76238;PMS7003;65043;48.392;-4.472;2023-11-21T09:37:45;2.50;2.50;1.00
76238;PMS7003;65043;48.392;-4.472;2023-11-21T09:40:11;4.50;4.50;2.00
76238;PMS7003;65043;48.392;-4.472;2023-11-21T09:42:43;5.00;2.00;1.50
76238;PMS7003;65043;48.392;-4.472;2023-11-21T09:45:19;3.25;1.50;0.50
76238;PMS7003;65043;48.392;-4.472;2023-11-21T09:47:50;2.25;1.00;0.25
76238;PMS7003;65043;48.392;-4.472;2023-11-21T09:50:18;4.00;2.00;1.00
76238;PMS7003;65043;48.392;-4.472;2023-11-21T09:55:39;1.50;1.50;1.00
76238;PMS7003;65043;48.392;-4.472;2023-11-21T09:58:09;2.25;2.25;0.00
76238;PMS7003;65043;48.392;-4.472;2023-11-21T10:00:39;2.00;1.00;1.00
76238;PMS7003;65043;48.392;-4.472;2023-11-21T10:03:09;4.00;1.00;1.00
76238;PMS7003;65043;48.392;-4.472;2023-11-21T10:05:35;2.50;2.00;0.50
76238;PMS7003;65043;48.392;-4.472;2023-11-21T10:08:02;1.00;1.00;0.00
76238;PMS7003;65043;48.392;-4.472;2023-11-21T10:10:32;5.50;2.25;0.75
76238;PMS7003;65043;48.392;-4.472;2023-11-21T10:12:57;6.75;1.00;0.75
76238;PMS7003;65043;48.392;-4.472;2023-11-21T10:15:28;2.00;2.00;1.00
76238;PMS7003;65043;48.392;-4.472;2023-11-21T10:17:57;1.25;1.25;0.75
76238;PMS7003;65043;48.392;-4.472;2023-11-21T10:20:23;1.25;1.25;0.50
76238;PMS7003;65043;48.392;-4.472;2023-11-21T10:22:49;1.00;1.00;0.00
76238;PMS7003;65043;48.392;-4.472;2023-11-21T10:25:15;1.00;1.00;0.75
76238;PMS7003;65043;48.392;-4.472;2023-11-21T10:27:41;4.75;0.75;0.00
76238;PMS7003;65043;48.392;-4.472;2023-11-21T10:30:08;3.00;1.00;0.00
76238;PMS7003;65043;48.392;-4.472;2023-11-21T10:32:38;3.75;1.50;0.00
76238;PMS7003;65043;48.392;-4.472;2023-11-21T10:35:05;3.00;3.00;1.00
76238;PMS7003;65043;48.392;-4.472;2023-11-21T10:37:35;4.50;2.00;0.00
76238;PMS7003;65043;48.392;-4.472;2023-11-21T10:40:04;2.00;1.00;0.50
76238;PMS7003;65043;48.392;-4.472;2023-11-21T10:42:32;2.00;2.00;1.00
76238;PMS7003;65043;48.392;-4.472;2023-11-21T10:44:57;4.50;1.50;0.00
76238;PMS7003;65043;48.392;-4.472;2023-11-21T10:47:23;1.25;1.00;0.25
76238;PMS7003;65043;48.392;-4.472;2023-11-21T10:49:49;5.00;1.75;0.75
76238;PMS7003;65043;48.392;-4.472;2023-11-21T10:52:14;4.75;1.50;1.00
76238;PMS7003;65043;48.392;-4.472;2023-11-21T10:54:43;2.25;2.00;1.00
76238;PMS7003;65043;48.392;-4.472;2023-11-21T10:57:09;1.25;0.75;0.00
76238;PMS7003;65043;48.392;-4.472;2023-11-21T10:59:36;3.75;1.25;0.50
76238;PMS7003;65043;48.392;-4.472;2023-11-21T11:02:09;2.25;1.50;1.00
76238;PMS7003;65043;48.392;-4.472;2023-11-21T11:04:46;1.00;1.00;0.00
76238;PMS7003;65043;48.392;-4.472;2023-11-21T11:07:13;1.00;0.25;0.00
76238;PMS7003;65043;48.392;-4.472;2023-11-21T11:09:41;1.25;1.00;0.25
76238;PMS7003;65043;48.392;-4.472;2023-11-21T11:12:07;1.75;0.50;0.00
76238;PMS7003;65043;48.392;-4.472;2023-11-21T11:14:34;3.75;2.00;1.00
76238;PMS7003;65043;48.392;-4.472;2023-11-21T11:17:01;0.00;0.00;0.00
76238;PMS7003;65043;48.392;-4.472;2023-11-21T11:19:27;3.75;1.50;1.00
76238;PMS7003;65043;48.392;-4.472;2023-11-21T11:25:00;2.00;1.50;0.00
76238;PMS7003;65043;48.392;-4.472;2023-11-21T11:38:26;5.00;2.00;0.50
76238;PMS7003;65043;48.392;-4.472;2023-11-21T11:40:56;3.50;1.75;1.00
76238;PMS7003;65043;48.392;-4.472;2023-11-21T11:43:24;2.00;1.00;0.00
76238;PMS7003;65043;48.392;-4.472;2023-11-21T11:45:51;2.00;2.00;0.00
76238;PMS7003;65043;48.392;-4.472;2023-11-21T11:48:19;2.00;1.00;0.25
76238;PMS7003;65043;48.392;-4.472;2023-11-21T11:51:03;1.50;1.50;0.00
76238;PMS7003;65043;48.392;-4.472;2023-11-21T11:53:35;2.00;2.00;0.00
76238;PMS7003;65043;48.392;-4.472;2023-11-21T11:56:19;1.25;1.25;1.00
76238;PMS7003;65043;48.392;-4.472;2023-11-21T11:58:46;1.00;0.00;0.00
76238;PMS7003;65043;48.392;-4.472;2023-11-21T12:01:12;1.00;1.00;0.00
76238;PMS7003;65043;48.392;-4.472;2023-11-21T12:03:38;0.50;0.50;0.00
76238;PMS7003;65043;48.392;-4.472;2023-11-21T12:06:04;0.75;0.75;0.00
76238;PMS7003;65043;48.392;-4.472;2023-11-21T12:08:32;2.25;1.00;0.75
76238;PMS7003;65043;48.392;-4.472;2023-11-21T12:10:57;2.00;1.00;0.00
76238;PMS7003;65043;48.392;-4.472;2023-11-21T12:13:23;1.00;1.00;0.00
76238;PMS7003;65043;48.392;-4.472;2023-11-21T12:15:48;1.25;1.00;0.00
76238;PMS7003;65043;48.392;-4.472;2023-11-21T12:18:15;4.50;1.00;0.00
76238;PMS7003;65043;48.392;-4.472;2023-11-21T12:20:41;3.00;3.00;2.00
76238;PMS7003;65043;48.392;-4.472;2023-11-21T12:23:08;2.75;1.25;1.00
76238;PMS7003;65043;48.392;-4.472;2023-11-21T12:25:34;3.00;1.75;0.50
76238;PMS7003;65043;48.392;-4.472;2023-11-21T12:28:02;1.75;1.75;0.00
76238;PMS7003;65043;48.392;-4.472;2023-11-21T12:30:31;2.00;1.00;0.00
76238;PMS7003;65043;48.392;-4.472;2023-11-21T12:33:03;4.25;1.00;0.75
76238;PMS7003;65043;48.392;-4.472;2023-11-21T12:35:33;1.75;1.50;0.00
76238;PMS7003;65043;48.392;-4.472;2023-11-21T12:38:00;2.00;1.00;0.50
76238;PMS7003;65043;48.392;-4.472;2023-11-21T12:40:29;6.75;0.25;0.25
76238;PMS7003;65043;48.392;-4.472;2023-11-21T12:42:56;8.25;4.50;3.00
76238;PMS7003;65043;48.392;-4.472;2023-11-21T12:45:26;10.75;9.00;5.00
76238;PMS7003;65043;48.392;-4.472;2023-11-21T12:47:59;2.00;2.00;1.00
76238;PMS7003;65043;48.392;-4.472;2023-11-21T12:50:32;7.00;3.50;1.00
76238;PMS7003;65043;48.392;-4.472;2023-11-21T12:53:02;3.00;1.75;1.00
76238;PMS7003;65043;48.392;-4.472;2023-11-21T12:55:30;1.00;1.00;1.00
76238;PMS7003;65043;48.392;-4.472;2023-11-21T12:57:57;0.25;0.25;0.00
76238;PMS7003;65043;48.392;-4.472;2023-11-21T13:00:34;1.25;1.00;0.00
76238;PMS7003;65043;48.392;-4.472;2023-11-21T13:03:04;1.00;1.00;0.25
76238;PMS7003;65043;48.392;-4.472;2023-11-21T13:05:35;2.25;0.50;0.00
76238;PMS7003;65043;48.392;-4.472;2023-11-21T13:08:05;4.00;4.00;2.00
76238;PMS7003;65043;48.392;-4.472;2023-11-21T13:10:37;2.75;2.00;1.00
76238;PMS7003;65043;48.392;-4.472;2023-11-21T13:13:05;1.50;1.00;0.00
76238;PMS7003;65043;48.392;-4.472;2023-11-21T13:15:33;0.00;0.00;0.00
76238;PMS7003;65043;48.392;-4.472;2023-11-21T13:18:01;3.25;1.25;0.00
76238;PMS7003;65043;48.392;-4.472;2023-11-21T13:20:27;2.00;2.00;0.00
76238;PMS7003;65043;48.392;-4.472;2023-11-21T13:22:55;0.50;0.50;0.00
76238;PMS7003;65043;48.392;-4.472;2023-11-21T13:25:26;1.00;1.00;0.00
76238;PMS7003;65043;48.392;-4.472;2023-11-21T13:27:53;3.25;0.75;0.00
76238;PMS7003;65043;48.392;-4.472;2023-11-21T13:30:19;0.25;0.25;0.00
76238;PMS7003;65043;48.392;-4.472;2023-11-21T13:33:04;0.50;0.50;0.00
76238;PMS7003;65043;48.392;-4.472;2023-11-21T13:35:32;0.75;0.00;0.00
76238;PMS7003;65043;48.392;-4.472;2023-11-21T13:38:12;3.50;1.00;0.00
76238;PMS7003;65043;48.392;-4.472;2023-11-21T13:40:41;1.75;0.00;0.00
76238;PMS7003;65043;48.392;-4.472;2023-11-21T13:43:14;4.00;1.00;0.00
76238;PMS7003;65043;48.392;-4.472;2023-11-21T13:45:40;2.00;1.00;0.00
76238;PMS7003;65043;48.392;-4.472;2023-11-21T13:48:07;2.00;2.00;1.00
76238;PMS7003;65043;48.392;-4.472;2023-11-21T13:50:37;1.00;1.00;1.00
76238;PMS7003;65043;48.392;-4.472;2023-11-21T13:53:04;0.00;0.00;0.00
76238;PMS7003;65043;48.392;-4.472;2023-11-21T13:55:50;2.75;0.50;0.00
76238;PMS7003;65043;48.392;-4.472;2023-11-21T13:58:25;2.00;0.75;0.00
76238;PMS7003;65043;48.392;-4.472;2023-11-21T14:01:13;0.00;0.00;0.00
76238;PMS7003;65043;48.392;-4.472;2023-11-21T14:04:00;3.00;0.00;0.00
76238;PMS7003;65043;48.392;-4.472;2023-11-21T14:06:48;0.00;0.00;0.00
76238;PMS7003;65043;48.392;-4.472;2023-11-21T14:09:16;0.50;0.50;0.00
76238;PMS7003;65043;48.392;-4.472;2023-11-21T14:12:01;0.00;0.00;0.00
76238;PMS7003;65043;48.392;-4.472;2023-11-21T14:14:31;1.00;1.00;0.00
76238;PMS7003;65043;48.392;-4.472;2023-11-21T14:16:56;0.25;0.00;0.00
76238;PMS7003;65043;48.392;-4.472;2023-11-21T14:19:24;1.00;1.00;0.00
76238;PMS7003;65043;48.392;-4.472;2023-11-21T14:21:55;0.00;0.00;0.00
76238;PMS7003;65043;48.392;-4.472;2023-11-21T14:24:21;1.00;0.00;0.00
76238;PMS7003;65043;48.392;-4.472;2023-11-21T14:26:48;0.50;0.00;0.00